Drakesburg, Ohio
Current Conditions -  °F | °C
As of 11:40 AM on Friday 21 Nov 2014 (Local Time) from KPOV Reporting Station
Broken Clouds Broken Clouds  
Wind Chill: 12°   Ceiling: 2600
Heat Index: 22°   Visibility: 10mi
Dew Point:   Wind: 9mph
Humidity: 58%   Direction: 270°W
Pressure: 30.44"   Gusts: NA
Location:  41.2385°N, 81.0761°W
Report Text: KPOV 211640Z AUTO 27008KT 10SM BKN026 BKN034 M05/M13 A3044 RMK AO2 T10541126
Loading
Personal Weather Stations






























Interactive Weather Map New forecast layout! Learn more

10-Day Weather Forecast

Advertisements
Track Severe Weather on mobile